createdAt,value
2024-04-18T00:02:17.429Z,4.91
2024-04-18T00:04:45.108Z,4.90
2024-04-18T00:07:12.983Z,4.89
2024-04-18T00:09:40.649Z,4.87
2024-04-18T00:12:08.165Z,4.85
2024-04-18T00:14:35.887Z,4.83
2024-04-18T00:17:03.445Z,4.82
2024-04-18T00:19:30.929Z,4.82
2024-04-18T00:21:59.502Z,4.84
2024-04-18T00:24:30.241Z,4.85
2024-04-18T00:26:57.956Z,4.85
2024-04-18T00:29:25.810Z,4.84
2024-04-18T00:31:53.382Z,4.83
2024-04-18T00:34:20.907Z,4.84
2024-04-18T00:36:48.584Z,4.85
2024-04-18T00:39:18.596Z,4.86
2024-04-18T00:41:46.100Z,4.85
2024-04-18T00:44:14.149Z,4.83
2024-04-18T00:46:41.786Z,4.85
2024-04-18T00:49:10.920Z,4.86
2024-04-18T00:51:39.027Z,4.85
2024-04-18T00:54:06.877Z,4.84
2024-04-18T00:56:35.219Z,4.85
2024-04-18T00:59:03.818Z,4.86
2024-04-18T01:01:31.532Z,4.86
2024-04-18T01:03:59.822Z,4.86
2024-04-18T01:06:29.182Z,4.86
2024-04-18T01:08:59.673Z,4.87
2024-04-18T01:11:27.354Z,4.88
2024-04-18T01:13:54.961Z,4.88
2024-04-18T01:16:24.103Z,4.88
2024-04-18T01:18:51.744Z,4.89
2024-04-18T01:21:19.416Z,4.89
2024-04-18T01:23:46.969Z,4.90
2024-04-18T01:26:16.747Z,4.90
2024-04-18T01:28:44.255Z,4.91
2024-04-18T01:31:11.780Z,4.93
2024-04-18T01:33:39.439Z,4.94
2024-04-18T01:36:07.585Z,4.95
2024-04-18T01:38:35.248Z,4.96
2024-04-18T01:41:02.854Z,4.97
2024-04-18T01:43:30.758Z,4.99
2024-04-18T01:45:58.464Z,4.99
2024-04-18T01:48:26.105Z,5.00
2024-04-18T01:50:53.801Z,5.02
2024-04-18T01:53:21.372Z,5.03
2024-04-18T01:55:48.890Z,5.04
2024-04-18T01:58:16.890Z,5.05
2024-04-18T02:00:44.831Z,5.07
2024-04-18T02:03:12.601Z,5.08
2024-04-18T02:05:40.583Z,5.08
2024-04-18T02:08:08.187Z,5.10
2024-04-18T02:10:35.806Z,5.11
2024-04-18T02:13:03.348Z,5.11
2024-04-18T02:15:30.998Z,5.12
2024-04-18T02:17:58.632Z,5.13
2024-04-18T02:20:26.152Z,5.14
2024-04-18T02:22:53.669Z,5.15
2024-04-18T02:25:21.370Z,5.17
2024-04-18T02:27:48.908Z,5.18
2024-04-18T02:30:16.759Z,5.19
2024-04-18T02:32:44.253Z,5.19
2024-04-18T02:35:12.183Z,5.21
2024-04-18T02:37:40.043Z,5.21
2024-04-18T02:40:08.407Z,5.21
2024-04-18T02:42:36.163Z,5.21
2024-04-18T02:45:03.909Z,5.20
2024-04-18T02:47:31.699Z,5.20
2024-04-18T02:49:59.460Z,5.19
2024-04-18T02:52:27.025Z,5.19
2024-04-18T02:54:54.569Z,5.19
2024-04-18T02:57:22.691Z,5.19
2024-04-18T02:59:50.602Z,5.19
2024-04-18T03:02:18.175Z,5.18
2024-04-18T03:04:48.839Z,5.18
2024-04-18T03:07:16.417Z,5.18
2024-04-18T03:09:44.065Z,5.18
2024-04-18T03:12:12.044Z,5.19
2024-04-18T03:14:43.197Z,5.19
2024-04-18T03:17:10.846Z,5.18
2024-04-18T03:19:38.472Z,5.17
2024-04-18T03:22:05.986Z,5.17
2024-04-18T03:24:33.599Z,5.16
2024-04-18T03:27:01.157Z,5.17
2024-04-18T03:29:28.710Z,5.16
2024-04-18T03:31:56.299Z,5.16
2024-04-18T03:34:23.773Z,5.15
2024-04-18T03:36:55.206Z,5.17
2024-04-18T03:39:22.838Z,5.16
2024-04-18T03:41:50.453Z,5.16
2024-04-18T03:44:17.944Z,5.15
2024-04-18T03:46:45.478Z,5.14
2024-04-18T03:49:13.274Z,5.13
2024-04-18T03:51:40.988Z,5.13
2024-04-18T03:54:08.604Z,5.12
2024-04-18T03:56:36.619Z,5.11
2024-04-18T03:59:04.238Z,5.11
2024-04-18T04:01:32.249Z,5.10
2024-04-18T04:04:00.061Z,5.08
2024-04-18T04:06:27.786Z,5.06
2024-04-18T04:08:55.459Z,5.06
2024-04-18T04:11:23.181Z,5.05
2024-04-18T04:13:50.819Z,5.02
2024-04-18T04:16:21.884Z,5.00
2024-04-18T04:18:56.207Z,4.99
2024-04-18T04:21:24.174Z,4.96
2024-04-18T04:23:52.345Z,4.96
2024-04-18T04:26:20.790Z,4.94
2024-04-18T04:28:48.302Z,4.95
2024-04-18T04:31:16.136Z,4.96
2024-04-18T04:33:43.731Z,4.96
2024-04-18T04:36:11.326Z,4.97
2024-04-18T04:38:39.961Z,4.96
2024-04-18T04:41:07.847Z,4.96
2024-04-18T04:43:35.446Z,4.99
2024-04-18T04:46:03.262Z,4.99
2024-04-18T04:48:33.894Z,5.00
2024-04-18T04:51:03.366Z,5.00
2024-04-18T04:53:30.849Z,5.01
2024-04-18T04:55:58.663Z,5.01
2024-04-18T04:58:26.785Z,5.01
2024-04-18T05:00:55.319Z,5.01
2024-04-18T05:03:23.203Z,5.02
2024-04-18T05:05:50.864Z,5.04
2024-04-18T05:08:21.036Z,5.04
2024-04-18T05:10:48.664Z,5.05
2024-04-18T05:13:16.680Z,5.05
2024-04-18T05:15:45.250Z,5.05
2024-04-18T05:18:13.035Z,5.04
2024-04-18T05:20:40.685Z,5.04
2024-04-18T05:23:08.557Z,5.04
2024-04-18T05:25:36.374Z,5.04
2024-04-18T05:28:14.921Z,5.05
2024-04-18T05:31:04.436Z,5.07
2024-04-18T05:33:32.892Z,5.09
2024-04-18T05:36:01.125Z,5.12
2024-04-18T05:38:28.806Z,5.17
2024-04-18T05:40:56.702Z,5.21
2024-04-18T05:43:25.343Z,5.23
2024-04-18T05:45:53.122Z,5.26
2024-04-18T05:48:20.827Z,5.29
2024-04-18T05:50:48.619Z,5.32
2024-04-18T05:53:16.141Z,5.35
2024-04-18T05:55:43.664Z,5.36
2024-04-18T05:58:11.195Z,5.38
2024-04-18T06:00:38.855Z,5.39
2024-04-18T06:03:06.540Z,5.44
2024-04-18T06:05:34.278Z,5.46
2024-04-18T06:08:02.041Z,5.46
2024-04-18T06:10:29.536Z,5.48
2024-04-18T06:12:57.135Z,5.48
2024-04-18T06:15:24.668Z,5.50
2024-04-18T06:17:52.329Z,5.51
2024-04-18T06:20:20.057Z,5.50
2024-04-18T06:22:49.154Z,5.53
2024-04-18T06:25:20.318Z,5.55
2024-04-18T06:27:48.277Z,5.56
2024-04-18T06:30:16.081Z,5.58
2024-04-18T06:32:43.626Z,5.61
2024-04-18T06:35:11.558Z,5.66
2024-04-18T06:37:39.428Z,5.72
2024-04-18T06:40:07.396Z,5.78
2024-04-18T06:42:34.986Z,5.85
2024-04-18T06:45:02.666Z,5.90
2024-04-18T06:47:30.266Z,5.95
2024-04-18T06:49:57.971Z,6.01
2024-04-18T06:52:25.500Z,6.07
2024-04-18T06:54:53.108Z,6.15
2024-04-18T06:57:20.821Z,6.23
2024-04-18T06:59:48.545Z,6.31
2024-04-18T07:02:16.267Z,6.36
2024-04-18T07:04:46.027Z,6.41
2024-04-18T07:07:15.084Z,6.47
2024-04-18T07:09:43.785Z,6.50
2024-04-18T07:12:13.597Z,6.53
2024-04-18T07:14:41.164Z,6.56
2024-04-18T07:17:08.720Z,6.59
2024-04-18T07:19:36.657Z,6.61
2024-04-18T07:22:04.438Z,6.64
2024-04-18T07:24:32.035Z,6.69
2024-04-18T07:26:59.520Z,6.72
2024-04-18T07:29:27.307Z,6.75
2024-04-18T07:31:55.356Z,6.78
2024-04-18T07:34:23.138Z,6.80
2024-04-18T07:36:51.089Z,6.81
2024-04-18T07:39:19.819Z,6.83
2024-04-18T07:41:47.802Z,6.85
2024-04-18T07:44:15.806Z,6.85
2024-04-18T07:46:45.135Z,6.86
2024-04-18T07:49:12.887Z,6.85
2024-04-18T07:51:41.644Z,6.86
2024-04-18T07:54:09.412Z,6.87
2024-04-18T07:56:37.458Z,6.88
2024-04-18T07:59:05.907Z,6.88
2024-04-18T08:01:35.152Z,6.87
2024-04-18T08:04:26.116Z,6.87
2024-04-18T08:06:55.139Z,6.87
2024-04-18T08:09:27.849Z,6.87
2024-04-18T08:14:32.575Z,6.92
2024-04-18T08:17:03.447Z,6.95
2024-04-18T08:19:31.120Z,6.95
2024-04-18T08:21:59.197Z,6.96
2024-04-18T08:24:33.854Z,6.96
2024-04-18T08:27:01.442Z,6.95
2024-04-18T08:29:29.086Z,6.93
2024-04-18T08:31:56.628Z,6.92
2024-04-18T08:34:24.803Z,6.91
2024-04-18T08:36:52.760Z,6.95
2024-04-18T08:39:20.743Z,7.03
2024-04-18T08:41:48.258Z,7.16
2024-04-18T08:44:16.473Z,7.23
2024-04-18T08:46:45.295Z,7.26
2024-04-18T08:49:14.599Z,7.29
2024-04-18T08:51:43.733Z,7.30
2024-04-18T08:54:11.490Z,7.28
2024-04-18T08:56:39.109Z,7.21
2024-04-18T08:59:07.587Z,7.13
2024-04-18T09:01:39.685Z,7.07
2024-04-18T09:04:07.302Z,7.03
2024-04-18T09:06:34.990Z,7.02
2024-04-18T09:09:02.720Z,7.00
2024-04-18T09:11:31.374Z,6.94
2024-04-18T09:13:59.266Z,6.90
2024-04-18T09:16:26.873Z,6.90
2024-04-18T09:18:54.613Z,6.93
2024-04-18T09:21:23.653Z,7.00
2024-04-18T09:23:51.856Z,7.08
2024-04-18T09:26:19.949Z,7.16
2024-04-18T09:28:47.474Z,7.25
2024-04-18T09:31:19.167Z,7.34
2024-04-18T09:33:50.256Z,7.39
2024-04-18T09:36:19.903Z,7.43
2024-04-18T09:38:48.903Z,7.46
2024-04-18T09:41:26.763Z,7.46
2024-04-18T09:43:54.344Z,7.44
2024-04-18T09:46:22.336Z,7.42
2024-04-18T09:48:50.098Z,7.41
2024-04-18T09:51:18.233Z,7.40
2024-04-18T09:53:46.787Z,7.39
2024-04-18T09:56:15.026Z,7.39
2024-04-18T09:58:43.243Z,7.42
2024-04-18T10:01:11.528Z,7.47
2024-04-18T10:03:40.178Z,7.52
2024-04-18T10:06:10.531Z,7.58
2024-04-18T10:08:43.108Z,7.67
2024-04-18T10:11:11.826Z,7.76
2024-04-18T10:13:39.545Z,7.84
2024-04-18T10:16:11.711Z,7.89
2024-04-18T10:18:40.562Z,7.93
2024-04-18T10:21:33.518Z,7.95
2024-04-18T10:24:11.004Z,7.95
2024-04-18T10:26:40.315Z,7.95
2024-04-18T10:29:24.114Z,7.94
2024-04-18T10:31:51.705Z,7.92
2024-04-18T10:34:23.475Z,7.98
2024-04-18T10:36:51.241Z,8.01
2024-04-18T10:39:32.246Z,8.03
2024-04-18T10:42:03.935Z,8.02
2024-04-18T10:44:31.977Z,8.03
2024-04-18T10:46:59.948Z,8.06
2024-04-18T10:49:28.086Z,8.14
2024-04-18T10:51:57.872Z,8.22
2024-04-18T10:54:25.565Z,8.33
2024-04-18T10:56:53.230Z,8.38
2024-04-18T10:59:20.842Z,8.38
2024-04-18T11:01:48.435Z,8.33
2024-04-18T11:04:16.174Z,8.32
2024-04-18T11:06:45.166Z,8.30
2024-04-18T11:09:16.673Z,8.30
2024-04-18T11:11:44.512Z,8.30
2024-04-18T11:14:13.663Z,8.35
2024-04-18T11:17:01.392Z,8.47
2024-04-18T11:19:30.743Z,8.58
2024-04-18T11:22:02.365Z,8.66
2024-04-18T11:24:30.462Z,8.72
2024-04-18T11:26:58.218Z,8.79
2024-04-18T11:29:28.348Z,8.88
2024-04-18T11:32:14.251Z,8.94
2024-04-18T11:34:52.287Z,9.00
2024-04-18T11:37:22.544Z,9.06
2024-04-18T11:39:50.206Z,9.11
2024-04-18T11:42:17.851Z,9.19
2024-04-18T11:44:45.579Z,9.24
2024-04-18T11:47:13.148Z,9.25
2024-04-18T11:49:41.733Z,9.19
2024-04-18T11:52:10.038Z,9.13
2024-04-18T11:54:37.605Z,9.07
2024-04-18T11:57:05.700Z,9.02
2024-04-18T11:59:33.513Z,9.00
2024-04-18T12:02:01.269Z,9.00
2024-04-18T12:04:29.014Z,9.02
2024-04-18T12:06:56.866Z,9.07
2024-04-18T12:09:24.501Z,9.13
2024-04-18T12:11:52.049Z,9.17
2024-04-18T12:14:19.635Z,9.18
2024-04-18T12:16:47.433Z,9.16
2024-04-18T12:19:15.031Z,9.10
2024-04-18T12:21:42.572Z,9.05
2024-04-18T12:24:10.268Z,9.03
2024-04-18T12:26:37.859Z,9.03
2024-04-18T12:29:05.885Z,9.09
2024-04-18T12:31:33.508Z,9.14
2024-04-18T12:34:01.062Z,9.19
2024-04-18T12:36:29.970Z,9.22
2024-04-18T12:38:57.768Z,9.22
2024-04-18T12:41:25.370Z,9.25
2024-04-18T12:43:52.942Z,9.29
2024-04-18T12:46:23.870Z,9.33
2024-04-18T12:48:53.320Z,9.35
2024-04-18T12:51:21.181Z,9.39
2024-04-18T12:53:48.817Z,9.44
2024-04-18T12:56:16.489Z,9.50
2024-04-18T12:58:44.470Z,9.54
2024-04-18T13:01:12.730Z,9.61
2024-04-18T13:03:45.133Z,9.64
2024-04-18T13:06:12.924Z,9.66
2024-04-18T13:08:40.911Z,9.70
2024-04-18T13:11:08.547Z,9.72
2024-04-18T13:13:36.170Z,9.76
2024-04-18T13:16:04.093Z,9.82
2024-04-18T13:18:31.698Z,9.88
2024-04-18T13:20:59.313Z,9.93
2024-04-18T13:23:26.915Z,9.96
2024-04-18T13:25:54.616Z,10.01
2024-04-18T13:28:22.260Z,10.04
2024-04-18T13:30:50.640Z,10.10
2024-04-18T13:33:18.254Z,10.11
2024-04-18T13:35:46.396Z,10.11
2024-04-18T13:38:14.616Z,10.12
2024-04-18T13:40:42.211Z,10.11
2024-04-18T13:43:09.928Z,10.08
2024-04-18T13:45:37.890Z,10.07
2024-04-18T13:48:06.460Z,10.08
2024-04-18T13:50:34.355Z,10.06
2024-04-18T13:53:02.100Z,10.04
2024-04-18T13:55:29.786Z,10.04
2024-04-18T13:57:59.531Z,10.02
2024-04-18T14:00:27.653Z,9.96
2024-04-18T14:02:55.386Z,9.86
2024-04-18T14:05:23.048Z,9.79
2024-04-18T14:07:50.659Z,9.72
2024-04-18T14:10:19.143Z,9.64
2024-04-18T14:12:46.879Z,9.55
2024-04-18T14:15:36.912Z,9.42
2024-04-18T14:18:24.198Z,9.27
2024-04-18T14:20:53.575Z,9.11
2024-04-18T14:23:21.130Z,9.03
2024-04-18T14:25:48.750Z,8.91
2024-04-18T14:28:23.936Z,8.79
2024-04-18T14:30:59.191Z,8.68
2024-04-18T14:33:27.046Z,8.59
2024-04-18T14:35:54.825Z,8.52
2024-04-18T14:38:22.663Z,8.50
2024-04-18T14:41:01.633Z,8.45
2024-04-18T14:43:37.360Z,8.42
2024-04-18T14:46:05.138Z,8.42
2024-04-18T14:48:34.641Z,8.41
2024-04-18T14:51:02.610Z,8.42
2024-04-18T14:53:30.428Z,8.44
2024-04-18T14:55:58.903Z,8.47
2024-04-18T14:58:26.538Z,8.48
2024-04-18T15:00:54.969Z,8.47
2024-04-18T15:03:23.129Z,8.46
2024-04-18T15:05:56.459Z,8.43
2024-04-18T15:08:25.009Z,8.41
2024-04-18T15:10:53.294Z,8.39
2024-04-18T15:13:20.935Z,8.36
2024-04-18T15:15:48.588Z,8.36
2024-04-18T15:18:16.564Z,8.35
2024-04-18T15:20:44.249Z,8.35
2024-04-18T15:23:11.787Z,8.34
2024-04-18T15:25:39.413Z,8.32
2024-04-18T15:28:07.131Z,8.36
2024-04-18T15:30:35.028Z,8.38
2024-04-18T15:33:02.914Z,8.40
2024-04-18T15:35:30.742Z,8.43
2024-04-18T15:37:58.423Z,8.44
2024-04-18T15:40:25.998Z,8.42
2024-04-18T15:42:53.667Z,8.40
2024-04-18T15:45:23.983Z,8.39
2024-04-18T15:47:51.940Z,8.37
2024-04-18T15:50:24.189Z,8.37
2024-04-18T15:52:51.811Z,8.35
2024-04-18T15:55:22.047Z,8.36
2024-04-18T15:57:50.342Z,8.36
2024-04-18T16:00:18.175Z,8.37
2024-04-18T16:02:49.098Z,8.37
2024-04-18T16:05:21.287Z,8.36
2024-04-18T16:07:48.914Z,8.35
2024-04-18T16:10:16.570Z,8.32
2024-04-18T16:12:44.806Z,8.25
2024-04-18T16:15:12.476Z,8.14
2024-04-18T16:17:42.956Z,8.05
2024-04-18T16:20:12.200Z,7.97
2024-04-18T16:22:40.005Z,7.92
2024-04-18T16:25:07.594Z,7.82
2024-04-18T16:27:37.050Z,7.72
2024-04-18T16:30:05.453Z,7.60
2024-04-18T16:32:33.056Z,7.44
2024-04-18T16:35:00.861Z,7.36
2024-04-18T16:37:28.516Z,7.28
2024-04-18T16:39:56.126Z,7.20
2024-04-18T16:42:23.829Z,7.14
2024-04-18T16:44:51.449Z,7.11
2024-04-18T16:47:18.965Z,7.06
2024-04-18T16:49:46.778Z,6.98
2024-04-18T16:52:14.333Z,6.91
2024-04-18T16:54:41.947Z,6.86
2024-04-18T16:57:09.562Z,6.83
2024-04-18T16:59:37.137Z,6.81
2024-04-18T17:02:04.918Z,6.79
2024-04-18T17:04:33.021Z,6.78
2024-04-18T17:07:00.687Z,6.74
2024-04-18T17:09:30.152Z,6.73
2024-04-18T17:11:57.691Z,6.71
2024-04-18T17:14:25.759Z,6.70
2024-04-18T17:16:53.322Z,6.69
2024-04-18T17:19:21.393Z,6.67
2024-04-18T17:21:49.294Z,6.64
2024-04-18T17:24:16.986Z,6.63
2024-04-18T17:26:44.570Z,6.61
2024-04-18T17:29:12.153Z,6.60
2024-04-18T17:31:39.903Z,6.59
2024-04-18T17:34:07.579Z,6.59
2024-04-18T17:36:35.229Z,6.59
2024-04-18T17:39:03.729Z,6.58
2024-04-18T17:41:31.918Z,6.57
2024-04-18T17:43:59.515Z,6.56
2024-04-18T17:46:27.864Z,6.56
2024-04-18T17:48:55.612Z,6.55
2024-04-18T17:51:23.449Z,6.55
2024-04-18T17:53:51.090Z,6.54
2024-04-18T17:56:20.064Z,6.55
2024-04-18T17:58:48.489Z,6.54
2024-04-18T18:01:16.733Z,6.53
2024-04-18T18:03:44.936Z,6.53
2024-04-18T18:06:12.645Z,6.52
2024-04-18T18:08:40.290Z,6.51
2024-04-18T18:11:07.901Z,6.50
2024-04-18T18:13:35.566Z,6.49
2024-04-18T18:16:03.482Z,6.48
2024-04-18T18:18:31.310Z,6.47
2024-04-18T18:20:58.976Z,6.43
2024-04-18T18:23:30.867Z,6.35
2024-04-18T18:25:58.718Z,6.32
2024-04-18T18:28:26.709Z,6.30
2024-04-18T18:30:54.256Z,6.30
2024-04-18T18:33:22.026Z,6.26
2024-04-18T18:35:49.670Z,6.24
2024-04-18T18:38:17.627Z,6.23
2024-04-18T18:40:50.068Z,6.22
2024-04-18T18:43:17.839Z,6.19
2024-04-18T18:45:45.483Z,6.18
2024-04-18T18:48:13.308Z,6.11
2024-04-18T18:50:42.516Z,6.08
2024-04-18T18:53:10.094Z,6.07
2024-04-18T18:55:37.873Z,6.05
2024-04-18T18:58:05.437Z,6.04
2024-04-18T19:00:33.168Z,6.02
2024-04-18T19:03:03.349Z,6.00
2024-04-18T19:05:32.779Z,5.98
2024-04-18T19:08:00.379Z,5.96
2024-04-18T19:10:27.950Z,5.93
2024-04-18T19:12:55.465Z,5.91
2024-04-18T19:15:23.002Z,5.90
2024-04-18T19:17:50.744Z,5.89
2024-04-18T19:20:18.381Z,5.87
2024-04-18T19:22:45.979Z,5.84
2024-04-18T19:25:14.911Z,5.83
2024-04-18T19:27:42.642Z,5.81
2024-04-18T19:30:10.536Z,5.80
2024-04-18T19:32:41.967Z,5.81
2024-04-18T19:35:12.201Z,5.82
2024-04-18T19:37:41.704Z,5.83
2024-04-18T19:40:09.663Z,5.82
2024-04-18T19:42:37.486Z,5.81
2024-04-18T19:45:06.144Z,5.82
2024-04-18T19:47:34.146Z,5.83
2024-04-18T19:50:02.356Z,5.83
2024-04-18T19:52:30.013Z,5.83
2024-04-18T19:54:57.658Z,5.84
2024-04-18T19:57:25.283Z,5.85
2024-04-18T19:59:53.969Z,5.86
2024-04-18T20:02:21.636Z,5.86
2024-04-18T20:04:49.362Z,5.86
2024-04-18T20:07:17.280Z,5.84
2024-04-18T20:09:44.828Z,5.85
2024-04-18T20:12:12.410Z,5.83
2024-04-18T20:14:39.846Z,5.81
2024-04-18T20:17:07.523Z,5.81
2024-04-18T20:19:35.250Z,5.80
2024-04-18T20:22:02.966Z,5.81
2024-04-18T20:24:30.746Z,5.82
2024-04-18T20:26:58.544Z,5.81
2024-04-18T20:29:26.334Z,5.82
2024-04-18T20:31:54.057Z,5.81
2024-04-18T20:34:21.696Z,5.81
2024-04-18T20:36:49.517Z,5.82
2024-04-18T20:39:17.776Z,5.83
2024-04-18T20:41:47.504Z,5.83
2024-04-18T20:44:15.154Z,5.84
2024-04-18T20:46:43.014Z,5.83
2024-04-18T20:49:10.658Z,5.79
2024-04-18T20:51:38.765Z,5.77
2024-04-18T20:54:06.292Z,5.75
2024-04-18T20:56:33.791Z,5.74
2024-04-18T20:59:01.326Z,5.72
2024-04-18T21:01:28.997Z,5.70
2024-04-18T21:03:56.888Z,5.69
2024-04-18T21:06:24.557Z,5.68
2024-04-18T21:08:52.192Z,5.66
2024-04-18T21:11:20.035Z,5.65
2024-04-18T21:13:48.099Z,5.62
2024-04-18T21:16:15.679Z,5.60
2024-04-18T21:18:43.461Z,5.58
2024-04-18T21:21:11.154Z,5.55
2024-04-18T21:23:39.489Z,5.53
2024-04-18T21:26:07.009Z,5.49
2024-04-18T21:28:34.576Z,5.47
2024-04-18T21:31:02.064Z,5.45
2024-04-18T21:33:30.415Z,5.43
2024-04-18T21:35:58.090Z,5.38
2024-04-18T21:38:26.401Z,5.36
2024-04-18T21:40:58.919Z,5.35
2024-04-18T21:43:26.744Z,5.33
2024-04-18T21:45:54.468Z,5.30
2024-04-18T21:48:22.404Z,5.27
2024-04-18T21:50:50.161Z,5.25
2024-04-18T21:53:17.676Z,5.24
2024-04-18T21:55:45.243Z,5.21
2024-04-18T21:58:12.821Z,5.20
2024-04-18T22:00:40.447Z,5.19
2024-04-18T22:03:08.324Z,5.17
2024-04-18T22:05:36.043Z,5.14
2024-04-18T22:08:03.743Z,5.13
2024-04-18T22:10:31.372Z,5.09
2024-04-18T22:12:59.071Z,5.07
2024-04-18T22:15:26.757Z,5.05
2024-04-18T22:17:54.484Z,5.02
2024-04-18T22:20:22.043Z,5.01
2024-04-18T22:22:49.692Z,4.96
2024-04-18T22:25:17.283Z,4.93
2024-04-18T22:27:45.529Z,4.92
2024-04-18T22:30:13.093Z,4.91
2024-04-18T22:32:47.296Z,4.90
2024-04-18T22:35:14.901Z,4.89
2024-04-18T22:37:42.976Z,4.88
2024-04-18T22:40:13.494Z,4.86
2024-04-18T22:42:41.262Z,4.85
2024-04-18T22:45:09.272Z,4.82
2024-04-18T22:47:37.116Z,4.81
2024-04-18T22:50:04.893Z,4.80
2024-04-18T22:52:32.540Z,4.78
2024-04-18T22:55:00.021Z,4.77
2024-04-18T22:57:27.615Z,4.75
2024-04-18T22:59:55.309Z,4.74
2024-04-18T23:02:23.007Z,4.72
2024-04-18T23:04:50.500Z,4.70
2024-04-18T23:07:18.076Z,4.68
2024-04-18T23:09:45.680Z,4.68
2024-04-18T23:12:13.277Z,4.67
2024-04-18T23:14:40.765Z,4.66
2024-04-18T23:17:11.419Z,4.64
2024-04-18T23:19:38.986Z,4.64
2024-04-18T23:22:07.243Z,4.62
2024-04-18T23:24:34.867Z,4.60
2024-04-18T23:27:02.446Z,4.60
2024-04-18T23:29:30.852Z,4.58
2024-04-18T23:31:59.069Z,4.56
2024-04-18T23:34:27.032Z,4.56
2024-04-18T23:36:57.117Z,4.54
2024-04-18T23:39:24.723Z,4.54
2024-04-18T23:41:52.359Z,4.53
2024-04-18T23:44:19.902Z,4.52
2024-04-18T23:46:47.681Z,4.52
2024-04-18T23:49:15.378Z,4.52
2024-04-18T23:51:43.066Z,4.52
2024-04-18T23:54:10.663Z,4.51
2024-04-18T23:56:38.548Z,4.50
2024-04-18T23:59:06.350Z,4.48
